sensor_id;sensor_type;location;lat;lon;timestamp;temperature;humidity
19248;DHT22;9758;48.640;8.148;2022-12-24T10:13:06;14.70;59.90
19248;DHT22;9758;48.640;8.148;2022-12-24T10:16:13;14.70;59.80
19248;DHT22;9758;48.640;8.148;2022-12-24T10:19:04;14.60;59.60
19248;DHT22;9758;48.640;8.148;2022-12-24T10:22:00;14.60;59.90
19248;DHT22;9758;48.640;8.148;2022-12-24T10:24:48;14.60;60.00
19248;DHT22;9758;48.640;8.148;2022-12-24T10:27:34;14.60;60.00
19248;DHT22;9758;48.640;8.148;2022-12-24T11:44:38;14.90;59.70
19248;DHT22;9758;48.640;8.148;2022-12-24T11:47:49;14.90;59.70
19248;DHT22;9758;48.640;8.148;2022-12-24T11:50:55;15.00;59.80
19248;DHT22;9758;48.640;8.148;2022-12-24T11:54:03;15.00;59.60
19248;DHT22;9758;48.640;8.148;2022-12-24T11:56:51;15.00;59.80
19248;DHT22;9758;48.640;8.148;2022-12-24T12:35:15;15.70;59.40
19248;DHT22;9758;48.640;8.148;2022-12-24T12:38:00;15.80;59.40
19248;DHT22;9758;48.640;8.148;2022-12-24T12:41:00;15.80;59.40
19248;DHT22;9758;48.640;8.148;2022-12-24T12:44:08;15.80;59.40
19248;DHT22;9758;48.640;8.148;2022-12-24T12:47:13;15.90;59.40
19248;DHT22;9758;48.640;8.148;2022-12-24T12:49:46;15.90;59.20
19248;DHT22;9758;48.640;8.148;2022-12-24T13:02:11;16.00;59.30
19248;DHT22;9758;48.640;8.148;2022-12-24T13:05:25;16.00;59.10
19248;DHT22;9758;48.640;8.148;2022-12-24T13:08:29;15.90;59.00
19248;DHT22;9758;48.640;8.148;2022-12-24T13:11:41;15.90;59.00
19248;DHT22;9758;48.640;8.148;2022-12-24T13:14:51;15.80;58.90
19248;DHT22;9758;48.640;8.148;2022-12-24T13:53:01;15.40;58.80
19248;DHT22;9758;48.640;8.148;2022-12-24T13:55:29;15.40;59.30
19248;DHT22;9758;48.640;8.148;2022-12-24T13:58:02;15.40;59.40
19248;DHT22;9758;48.640;8.148;2022-12-24T14:00:52;15.40;59.30
19248;DHT22;9758;48.640;8.148;2022-12-24T14:03:36;15.50;59.30
19248;DHT22;9758;48.640;8.148;2022-12-24T14:06:38;15.50;59.30
19248;DHT22;9758;48.640;8.148;2022-12-24T14:18:43;15.50;59.00
19248;DHT22;9758;48.640;8.148;2022-12-24T14:21:15;15.50;59.00
19248;DHT22;9758;48.640;8.148;2022-12-24T14:23:50;15.50;59.00
19248;DHT22;9758;48.640;8.148;2022-12-24T14:26:35;15.50;59.00
19248;DHT22;9758;48.640;8.148;2022-12-24T14:29:15;15.40;58.90
19248;DHT22;9758;48.640;8.148;2022-12-24T14:31:50;15.40;59.00
19248;DHT22;9758;48.640;8.148;2022-12-24T14:34:21;15.30;59.00
19248;DHT22;9758;48.640;8.148;2022-12-24T14:37:02;15.30;59.10
19248;DHT22;9758;48.640;8.148;2022-12-24T14:39:47;15.30;59.00
19248;DHT22;9758;48.640;8.148;2022-12-24T14:42:31;15.20;59.00
19248;DHT22;9758;48.640;8.148;2022-12-24T14:45:12;15.20;59.10
19248;DHT22;9758;48.640;8.148;2022-12-24T14:47:47;15.20;59.00
19248;DHT22;9758;48.640;8.148;2022-12-24T14:53:43;15.10;59.10
19248;DHT22;9758;48.640;8.148;2022-12-24T14:56:18;15.10;59.20
19248;DHT22;9758;48.640;8.148;2022-12-24T15:09:42;15.10;59.20
19248;DHT22;9758;48.640;8.148;2022-12-24T15:12:11;15.00;58.90
19248;DHT22;9758;48.640;8.148;2022-12-24T15:14:41;14.90;59.00
19248;DHT22;9758;48.640;8.148;2022-12-24T15:17:11;14.90;59.00
19248;DHT22;9758;48.640;8.148;2022-12-24T15:19:41;14.80;59.00
19248;DHT22;9758;48.640;8.148;2022-12-24T15:22:16;14.80;59.00
19248;DHT22;9758;48.640;8.148;2022-12-24T16:10:26;14.30;59.40
19248;DHT22;9758;48.640;8.148;2022-12-24T16:12:54;14.30;59.40
19248;DHT22;9758;48.640;8.148;2022-12-24T16:15:23;14.30;59.50
19248;DHT22;9758;48.640;8.148;2022-12-24T16:18:04;14.30;59.50
19248;DHT22;9758;48.640;8.148;2022-12-24T16:20:47;14.20;59.40
19248;DHT22;9758;48.640;8.148;2022-12-24T16:23:33;14.20;59.50
19248;DHT22;9758;48.640;8.148;2022-12-24T16:51:59;14.10;59.50
19248;DHT22;9758;48.640;8.148;2022-12-24T16:54:27;14.10;59.60
19248;DHT22;9758;48.640;8.148;2022-12-24T17:37:21;14.10;59.60
19248;DHT22;9758;48.640;8.148;2022-12-24T17:40:08;14.10;59.40
19248;DHT22;9758;48.640;8.148;2022-12-24T17:42:49;14.10;59.50
19248;DHT22;9758;48.640;8.148;2022-12-24T17:45:30;14.10;59.60
19248;DHT22;9758;48.640;8.148;2022-12-24T17:48:11;14.10;59.70
19248;DHT22;9758;48.640;8.148;2022-12-24T17:50:53;14.10;59.70
19248;DHT22;9758;48.640;8.148;2022-12-24T19:15:44;13.90;59.70
19248;DHT22;9758;48.640;8.148;2022-12-24T19:18:15;13.90;59.70
19248;DHT22;9758;48.640;8.148;2022-12-24T19:21:01;13.90;59.70
19248;DHT22;9758;48.640;8.148;2022-12-24T19:23:39;13.90;59.80
19248;DHT22;9758;48.640;8.148;2022-12-24T19:26:07;13.90;59.70
19248;DHT22;9758;48.640;8.148;2022-12-24T19:28:50;13.90;59.80
19248;DHT22;9758;48.640;8.148;2022-12-24T22:24:02;13.70;60.20
19248;DHT22;9758;48.640;8.148;2022-12-24T22:26:43;13.70;60.20
19248;DHT22;9758;48.640;8.148;2022-12-24T22:29:24;13.60;60.10
19248;DHT22;9758;48.640;8.148;2022-12-24T22:31:51;13.60;60.10
19248;DHT22;9758;48.640;8.148;2022-12-24T22:34:33;13.60;60.10
19248;DHT22;9758;48.640;8.148;2022-12-24T22:37:25;13.50;60.10
19248;DHT22;9758;48.640;8.148;2022-12-24T22:59:15;13.50;60.20
19248;DHT22;9758;48.640;8.148;2022-12-24T23:01:43;13.50;60.30
19248;DHT22;9758;48.640;8.148;2022-12-24T23:04:12;13.50;60.30
19248;DHT22;9758;48.640;8.148;2022-12-24T23:06:53;13.50;60.40
19248;DHT22;9758;48.640;8.148;2022-12-24T23:09:34;13.50;60.30
